Time;durP1;ratioP1;P1;durP2;ratioP2;P2;SDS_P1;SDS_P2;PMS_P1;PMS_P2;Temp;Humidity;BMP_temperature;BMP_pressure;BME280_temperature;BME280_humidity;BME280_pressure;Samples;Min_cycle;Max_cycle;Signal;HPM_P1;HPM_P2
2022/09/28 00:00:40;;;;;;;27.90;15.68;;;;;;;6.09;100.00;99320.63;1977455;28;20037;-70
2022/09/28 00:01:38;;;;;;;25.75;14.93;;;;;;;6.10;100.00;99309.38;1977614;28;20393;-69
2022/09/28 00:02:35;;;;;;;29.73;16.48;;;;;;;6.09;100.00;99318.03;1978078;28;20075;-71
2022/09/28 00:03:34;;;;;;;27.13;15.55;;;;;;;6.08;100.00;99324.13;1977935;28;20504;-69
2022/09/28 00:04:34;;;;;;;28.90;15.13;;;;;;;6.09;100.00;99314.63;1977787;28;20029;-72
2022/09/28 00:05:32;;;;;;;26.08;15.90;;;;;;;6.07;100.00;99317.28;1978058;28;20036;-71
2022/09/28 00:06:30;;;;;;;30.98;15.70;;;;;;;6.03;100.00;99320.91;1978173;28;20033;-70
2022/09/28 00:07:28;;;;;;;32.55;16.25;;;;;;;6.03;100.00;99326.06;1978072;28;20037;-70
2022/09/28 00:08:25;;;;;;;27.50;15.57;;;;;;;6.05;100.00;99319.09;1978189;28;20030;-71
2022/09/28 00:09:22;;;;;;;30.65;17.30;;;;;;;6.09;100.00;99315.44;1978059;28;20033;-73
2022/09/28 00:10:22;;;;;;;25.80;15.85;;;;;;;6.10;100.00;99311.94;1977586;28;20030;-70
2022/09/28 00:11:26;;;;;;;29.73;16.48;;;;;;;6.07;100.00;99322.44;1977483;28;20047;-72
2022/09/28 00:12:24;;;;;;;26.88;16.10;;;;;;;6.05;100.00;99321.66;1978127;28;20029;-70
2022/09/28 00:13:23;;;;;;;28.20;16.88;;;;;;;6.06;100.00;99331.16;1978046;28;20030;-69
2022/09/28 00:14:20;;;;;;;29.45;16.92;;;;;;;6.09;100.00;99324.97;1975696;28;20473;-69
2022/09/28 00:15:18;;;;;;;28.15;16.85;;;;;;;6.06;100.00;99325.97;1977982;28;20113;-70
2022/09/28 00:16:18;;;;;;;27.40;15.43;;;;;;;6.01;100.00;99327.88;1978072;28;20112;-69
2022/09/28 00:17:15;;;;;;;28.58;16.08;;;;;;;6.04;100.00;99332.94;1977931;28;20099;-70
2022/09/28 00:18:13;;;;;;;31.65;18.15;;;;;;;6.06;100.00;99323.38;1977994;28;20104;-70
2022/09/28 00:19:12;;;;;;;30.90;17.50;;;;;;;6.08;100.00;99323.28;1977901;28;20033;-70
2022/09/28 00:20:10;;;;;;;33.35;17.55;;;;;;;6.06;100.00;99325.97;1978063;28;20386;-69
2022/09/28 00:21:12;;;;;;;28.80;17.08;;;;;;;6.05;100.00;99326.84;1977295;28;20048;-72
2022/09/28 00:22:10;;;;;;;31.50;16.00;;;;;;;6.01;100.00;99317.53;1977456;28;20123;-72
2022/09/28 00:23:07;;;;;;;29.92;17.55;;;;;;;6.05;100.00;99316.50;1978025;28;20036;-70
2022/09/28 00:24:11;;;;;;;30.95;16.92;;;;;;;6.04;100.00;99314.81;1977279;28;20440;-72
2022/09/28 00:25:08;;;;;;;29.05;16.50;;;;;;;6.03;100.00;99316.56;1977485;28;20428;-71
2022/09/28 00:26:06;;;;;;;29.73;16.65;;;;;;;6.02;100.00;99314.03;1977924;28;20029;-70
2022/09/28 00:27:03;;;;;;;29.13;17.23;;;;;;;6.01;100.00;99317.53;1977935;28;20117;-70
2022/09/28 00:28:00;;;;;;;27.30;17.67;;;;;;;5.99;100.00;99312.41;1977894;28;20363;-70
2022/09/28 00:29:01;;;;;;;28.48;16.90;;;;;;;6.02;100.00;99311.47;1977900;28;20374;-69
2022/09/28 00:29:58;;;;;;;;;;;;;;;5.97;100.00;99316.00;1978374;28;20079;-71
2022/09/28 00:30:57;;;;;;;31.25;16.65;;;;;;;5.99;100.00;99309.00;1977899;28;19966;-72
2022/09/28 00:32:10;;;;;;;35.95;17.73;;;;;;;6.01;100.00;99309.75;1977790;28;20034;-70
2022/09/28 00:33:08;;;;;;;27.70;16.65;;;;;;;5.98;100.00;99312.47;1977934;28;20037;-70
2022/09/28 00:34:05;;;;;;;28.60;17.27;;;;;;;5.99;100.00;99309.00;1977227;28;20029;-71
2022/09/28 00:35:03;;;;;;;29.23;17.55;;;;;;;5.97;100.00;99296.13;1969447;28;20032;-70
2022/09/28 00:36:00;;;;;;;29.55;17.70;;;;;;;6.00;100.00;99308.09;1968596;28;20385;-70
2022/09/28 00:37:00;;;;;;;32.95;18.50;;;;;;;5.97;100.00;99306.47;1976429;28;20073;-72
2022/09/28 00:37:57;;;;;;;32.35;18.98;;;;;;;6.00;100.00;99295.13;1977792;28;20029;-71
2022/09/28 00:38:56;;;;;;;27.15;18.20;;;;;;;5.97;100.00;99303.03;1977200;28;20603;-70
2022/09/28 00:39:54;;;;;;;31.90;18.17;;;;;;;5.97;100.00;99305.63;1977280;28;20025;-72
2022/09/28 00:40:52;;;;;;;36.63;18.73;;;;;;;6.03;100.00;99300.19;1977705;28;20384;-70
2022/09/28 00:41:50;;;;;;;29.80;18.38;;;;;;;6.03;100.00;99297.59;1977215;28;20022;-70
2022/09/28 00:42:47;;;;;;;29.83;18.15;;;;;;;6.03;100.00;99297.59;1977133;28;20094;-71
2022/09/28 00:43:45;;;;;;;34.95;18.83;;;;;;;6.05;100.00;99288.00;1977988;28;20017;-72
2022/09/28 00:44:46;;;;;;;29.65;18.38;;;;;;;6.05;100.00;99295.78;1975678;28;20025;-70
2022/09/28 00:45:48;;;;;;;30.08;18.23;;;;;;;6.06;100.00;99294.88;1977859;28;20033;-72
2022/09/28 00:46:45;;;;;;;31.90;18.42;;;;;;;6.05;100.00;99295.78;1977767;28;20072;-70
2022/09/28 00:47:50;;;;;;;33.10;18.48;;;;;;;6.07;100.00;99288.78;1977832;28;20031;-70
2022/09/28 00:48:57;;;;;;;30.52;18.98;;;;;;;6.03;100.00;99295.00;1977744;28;20021;-71
2022/09/28 00:50:31;;;;;;;31.42;19.17;;;;;;;6.03;100.00;99289.81;1977789;28;20017;-68
2022/09/28 00:51:30;;;;;;;30.50;17.23;;;;;;;6.03;100.00;99289.81;1977702;28;20039;-69
2022/09/28 00:52:37;;;;;;;29.05;18.08;;;;;;;6.03;100.00;99287.22;1977712;28;20029;-70
2022/09/28 00:53:41;;;;;;;31.10;19.55;;;;;;;5.99;100.00;99289.09;1977714;28;20029;-72
2022/09/28 00:54:44;;;;;;;29.05;17.63;;;;;;;5.99;100.00;99291.69;1977655;28;20088;-71
2022/09/28 00:55:53;;;;;;;30.05;17.80;;;;;;;6.02;100.00;99288.16;1977790;28;20029;-70
2022/09/28 00:56:51;;;;;;;34.25;18.70;;;;;;;6.02;100.00;99290.75;1977672;28;20018;-71
2022/09/28 00:57:56;;;;;;;28.02;17.92;;;;;;;6.01;100.00;99286.44;1977722;28;20027;-70
2022/09/28 00:58:56;;;;;;;31.38;18.35;;;;;;;6.01;100.00;99281.28;1977527;28;20565;-70
2022/09/28 00:59:54;;;;;;;31.70;18.33;;;;;;;6.01;100.00;99281.28;1977709;28;20033;-71
2022/09/28 01:00:54;;;;;;;30.58;18.63;;;;;;;6.03;100.00;99284.63;1977578;28;20032;-70
2022/09/28 01:01:52;;;;;;;34.20;20.27;;;;;;;6.06;100.00;99284.53;1977756;28;20385;-72
2022/09/28 01:02:50;;;;;;;31.23;19.27;;;;;;;6.06;100.00;99279.34;1977716;28;20033;-71
2022/09/28 01:03:47;;;;;;;29.65;18.95;;;;;;;6.08;100.00;99287.88;1977012;28;20031;-71
2022/09/28 01:04:46;;;;;;;30.92;19.15;;;;;;;6.04;100.00;99276.81;1977043;28;20432;-70
2022/09/28 01:05:45;;;;;;;37.72;19.05;;;;;;;6.10;100.00;99275.69;1977595;28;20104;-70
2022/09/28 01:06:45;;;;;;;34.47;19.75;;;;;;;6.12;100.00;99279.03;1977787;28;20033;-71
2022/09/28 01:07:46;;;;;;;31.48;18.88;;;;;;;6.14;100.00;99272.03;1977688;28;20064;-71
2022/09/28 01:08:46;;;;;;;33.35;19.55;;;;;;;6.15;100.00;99273.69;1977712;28;20063;-71
2022/09/28 01:09:45;;;;;;;37.53;19.70;;;;;;;6.13;100.00;99272.94;1977654;28;20033;-71
2022/09/28 01:10:42;;;;;;;32.65;19.15;;;;;;;6.16;100.00;99277.97;1977646;28;20413;-73
2022/09/28 01:11:41;;;;;;;34.75;19.90;;;;;;;6.18;100.00;99272.72;1977541;28;20112;-71
2022/09/28 01:12:39;;;;;;;37.22;20.08;;;;;;;6.21;100.00;99271.72;1977670;28;20029;-71
2022/09/28 01:13:39;;;;;;;32.95;20.70;;;;;;;6.23;100.00;99269.91;1977592;28;20060;-71
2022/09/28 01:14:39;;;;;;;37.58;21.25;;;;;;;6.23;100.00;99275.09;1975308;28;20021;-70
2022/09/28 01:15:56;;;;;;;34.80;20.13;;;;;;;6.24;100.00;99271.56;1976861;28;20064;-70
2022/09/28 01:17:06;;;;;;;37.00;19.77;;;;;;;6.22;100.00;99268.22;1977537;28;20120;-70
2022/09/28 01:18:31;;;;;;;33.30;19.45;;;;;;;6.22;100.00;99282.00;1977587;28;20438;-70
2022/09/28 01:19:31;;;;;;;34.63;18.33;;;;;;;6.22;100.00;99278.59;1977486;28;20025;-71
2022/09/28 01:21:10;;;;;;;36.22;20.40;;;;;;;6.23;100.00;99275.09;1977444;28;20121;-69
2022/09/28 01:23:00;;;;;;;35.50;19.40;;;;;;;6.24;100.00;99279.34;1977546;28;20082;-70
2022/09/28 01:24:20;;;;;;;31.27;18.33;;;;;;;6.23;100.00;99283.66;1976812;28;20116;-69
2022/09/28 01:26:13;;;;;;;33.40;19.08;;;;;;;6.25;100.00;99281.00;1977216;28;20037;-71
2022/09/28 01:27:29;;;;;;;35.85;19.88;;;;;;;6.25;100.00;99283.59;1977514;28;20034;-70
2022/09/28 01:28:29;;;;;;;32.53;19.00;;;;;;;6.27;100.00;99281.78;1977524;28;20550;-69
2022/09/28 01:29:26;;;;;;;32.17;20.25;;;;;;;6.25;100.00;99281.84;1977540;28;20144;-70
2022/09/28 01:30:24;;;;;;;36.97;20.00;;;;;;;6.23;100.00;99283.66;1977442;28;20030;-71
2022/09/28 01:31:31;;;;;;;38.95;21.02;;;;;;;6.28;100.00;99278.28;1977498;28;20497;-69
2022/09/28 01:32:54;;;;;;;36.55;21.80;;;;;;;6.30;100.00;99281.63;1977595;28;20473;-71
2022/09/28 01:33:59;;;;;;;36.55;19.90;;;;;;;6.29;100.00;99278.19;1977506;28;20039;-71
2022/09/28 01:35:20;;;;;;;37.75;21.60;;;;;;;6.29;100.00;99277.34;1977388;28;20087;-73
2022/09/28 01:36:28;;;;;;;36.35;20.35;;;;;;;6.30;100.00;99286.81;1977433;28;20048;-70
2022/09/28 01:37:40;;;;;;;37.60;21.88;;;;;;;6.32;100.00;99279.78;1977494;28;20083;-70
2022/09/28 01:39:12;;;;;;;39.22;21.15;;;;;;;6.30;100.00;99281.63;1977339;28;20039;-70
2022/09/28 01:40:13;;;;;;;36.72;21.98;;;;;;;6.30;100.00;99281.63;1969664;28;20485;-71
2022/09/28 01:41:12;;;;;;;41.22;22.80;;;;;;;6.34;100.00;99290.94;1976914;28;20398;-69
2022/09/28 01:42:20;;;;;;;39.75;23.25;;;;;;;6.34;100.00;99283.16;1977425;28;20039;-70
2022/09/28 01:43:24;;;;;;;48.17;24.00;;;;;;;6.38;100.00;99284.69;1977244;28;20030;-69
2022/09/28 01:44:28;;;;;;;42.00;24.13;;;;;;;6.37;100.00;99288.16;1975037;28;20439;-72
2022/09/28 01:45:39;;;;;;;45.42;24.23;;;;;;;6.39;100.00;99290.69;1977370;28;20049;-72
2022/09/28 01:46:43;;;;;;;49.15;24.58;;;;;;;6.37;100.00;99288.16;1977466;28;20047;-72
2022/09/28 01:47:44;;;;;;;42.03;24.33;;;;;;;6.42;100.00;99293.13;1977452;28;20389;-70
2022/09/28 01:48:55;;;;;;;49.60;24.98;;;;;;;6.42;100.00;99296.56;1977466;28;20029;-72
2022/09/28 01:50:13;;;;;;;50.17;25.30;;;;;;;6.41;100.00;99296.66;1977361;28;20029;-71
2022/09/28 01:51:27;;;;;;;46.60;24.60;;;;;;;6.43;100.00;99297.38;1977316;28;20121;-70
2022/09/28 01:52:39;;;;;;;46.45;25.55;;;;;;;6.41;100.00;99297.50;1977489;28;20519;-70
2022/09/28 01:53:47;;;;;;;43.40;25.20;;;;;;;6.48;100.00;99294.56;1976663;28;20552;-71
2022/09/28 01:54:55;;;;;;;46.90;24.88;;;;;;;6.47;100.00;99298.09;1976947;28;20025;-72
2022/09/28 01:56:06;;;;;;;48.17;25.00;;;;;;;6.48;100.00;99299.75;1977259;28;20499;-72
2022/09/28 01:57:21;;;;;;;50.60;25.45;;;;;;;6.47;100.00;99298.09;1976685;28;20032;-70
2022/09/28 01:58:34;;;;;;;51.17;25.77;;;;;;;6.50;100.00;99295.34;1976715;28;20473;-71
2022/09/28 01:59:40;;;;;;;48.42;25.63;;;;;;;6.50;100.00;99292.75;1976797;28;20044;-73
2022/09/28 02:00:43;;;;;;;50.22;26.42;;;;;;;6.52;100.00;99296.09;1977376;28;20263;-70
2022/09/28 02:01:51;;;;;;;52.65;26.00;;;;;;;6.51;100.00;99295.28;1977257;28;20124;-70
2022/09/28 02:03:05;;;;;;;58.28;27.23;;;;;;;6.51;100.00;99294.44;1977399;28;20029;-72
2022/09/28 02:04:24;;;;;;;52.60;27.17;;;;;;;6.51;100.00;99284.91;1977351;28;20060;-72
2022/09/28 02:05:31;;;;;;;52.10;27.35;;;;;;;6.51;100.00;99297.03;1977267;28;20030;-72
2022/09/28 02:06:56;;;;;;;51.72;27.90;;;;;;;6.53;100.00;99282.22;1977370;28;20125;-70
2022/09/28 02:08:19;;;;;;;51.95;25.67;;;;;;;6.51;100.00;99278.88;1977191;28;20032;-70
2022/09/28 02:09:27;;;;;;;51.67;25.90;;;;;;;6.51;100.00;99281.47;1977372;28;20082;-70
2022/09/28 02:10:37;;;;;;;44.10;25.17;;;;;;;6.52;100.00;99285.72;1977321;28;20025;-71
2022/09/28 02:11:43;;;;;;;52.45;27.30;;;;;;;6.52;100.00;99281.41;1977371;28;20029;-70
2022/09/28 02:13:01;;;;;;;53.03;26.70;;;;;;;6.52;100.00;99283.13;1976573;28;20424;-70
2022/09/28 02:14:10;;;;;;;49.20;24.52;;;;;;;6.52;100.00;99285.72;1974382;28;20397;-70
2022/09/28 02:15:19;;;;;;;46.33;24.90;;;;;;;6.49;100.00;99276.38;1976902;28;20527;-69
2022/09/28 02:16:38;;;;;;;46.15;24.33;;;;;;;6.50;100.00;99282.41;1976681;28;20200;-71
2022/09/28 02:17:35;;;;;;;45.92;23.90;;;;;;;6.51;100.00;99277.13;1976925;28;20025;-69
2022/09/28 02:18:33;;;;;;;42.80;23.27;;;;;;;6.52;100.00;99277.94;1977189;28;20068;-68
2022/09/28 02:19:32;;;;;;;41.63;23.77;;;;;;;6.51;100.00;99286.66;1977309;28;20098;-71
2022/09/28 02:20:33;;;;;;;48.90;25.02;;;;;;;6.55;100.00;99286.44;1977131;28;20038;-72
2022/09/28 02:21:42;;;;;;;42.60;24.42;;;;;;;6.54;100.00;99278.72;1977440;28;20033;-71
2022/09/28 02:22:52;;;;;;;38.03;22.42;;;;;;;6.51;100.00;99281.47;1977232;28;20547;-70
2022/09/28 02:24:05;;;;;;;45.67;24.17;;;;;;;6.54;100.00;99281.31;1977338;28;20036;-70
2022/09/28 02:25:21;;;;;;;42.38;22.75;;;;;;;6.51;100.00;99282.31;1977250;28;20488;-70
2022/09/28 02:26:31;;;;;;;38.65;20.80;;;;;;;6.50;100.00;99274.63;1977323;28;20033;-70
2022/09/28 02:27:36;;;;;;;38.67;21.95;;;;;;;6.41;100.00;99289.72;1977710;28;20112;-71
2022/09/28 02:28:34;;;;;;;37.38;21.77;;;;;;;6.41;100.00;99279.34;1978252;28;20108;-69
2022/09/28 02:29:31;;;;;;;39.90;22.38;;;;;;;6.44;100.00;99284.34;1978774;28;20040;-71
2022/09/28 02:30:31;;;;;;;31.92;21.63;;;;;;;6.41;100.00;99284.53;1978786;28;20042;-72
2022/09/28 02:31:30;;;;;;;32.30;21.10;;;;;;;6.37;100.00;99282.97;1978729;28;20033;-69
2022/09/28 02:32:31;;;;;;;36.50;21.92;;;;;;;6.35;100.00;99284.84;1978716;28;20063;-69
2022/09/28 02:33:36;;;;;;;37.67;22.02;;;;;;;6.34;100.00;99288.34;1978714;28;20083;-71
2022/09/28 02:34:34;;;;;;;31.52;20.85;;;;;;;6.33;100.00;99286.66;1978783;28;20469;-71
2022/09/28 02:35:34;;;;;;;34.95;20.08;;;;;;;6.31;100.00;99284.16;1978651;28;20033;-71
2022/09/28 02:36:32;;;;;;;35.03;21.17;;;;;;;6.30;100.00;99287.63;1978788;28;20030;-71
2022/09/28 02:37:30;;;;;;;33.83;21.17;;;;;;;6.25;100.00;99283.59;1978663;28;20033;-70
2022/09/28 02:38:27;;;;;;;33.17;18.60;;;;;;;6.22;100.00;99289.78;1978720;28;20033;-73
2022/09/28 02:39:25;;;;;;;35.25;18.85;;;;;;;6.18;100.00;99286.50;1978072;28;20031;-70
2022/09/28 02:40:30;;;;;;;32.30;19.85;;;;;;;6.20;100.00;99285.59;1978232;28;20029;-70
2022/09/28 02:42:10;;;;;;;34.65;20.00;;;;;;;6.17;100.00;99286.59;1978612;28;20501;-69
2022/09/28 02:43:29;;;;;;;29.25;18.15;;;;;;;6.13;100.00;99280.69;1978719;28;20040;-73
2022/09/28 02:44:37;;;;;;;29.27;18.00;;;;;;;6.11;100.00;99286.88;1976516;28;20494;-70
2022/09/28 02:46:09;;;;;;;33.20;17.63;;;;;;;6.09;100.00;99284.34;1978613;28;20045;-69
2022/09/28 02:47:39;;;;;;;33.15;18.33;;;;;;;6.07;100.00;99281.00;1978717;28;20028;-70
2022/09/28 02:48:53;;;;;;;;;;;;;;;6.02;100.00;99290.75;1979148;28;20099;-70
2022/09/28 02:50:35;;;;;;;27.15;15.27;;;;;;;5.99;100.00;99288.28;1977948;28;19967;-71
2022/09/28 02:51:42;;;;;;;31.65;16.85;;;;;;;5.99;100.00;99291.69;1978297;28;20040;-71
2022/09/28 02:53:25;;;;;;;31.67;16.63;;;;;;;6.03;100.00;99289.81;1978672;28;20037;-69
2022/09/28 02:54:50;;;;;;;30.02;15.85;;;;;;;6.02;100.00;99298.50;1978646;28;20035;-71
2022/09/28 02:56:18;;;;;;;24.08;15.13;;;;;;;5.97;100.00;99292.69;1977874;28;20071;-70
2022/09/28 02:57:29;;;;;;;28.27;14.90;;;;;;;5.97;100.00;99296.13;1978295;28;20567;-70
2022/09/28 02:58:50;;;;;;;29.42;16.83;;;;;;;5.96;100.00;99301.38;1978488;28;20040;-72
2022/09/28 03:00:06;;;;;;;31.20;15.93;;;;;;;5.94;100.00;99301.44;1978547;28;20022;-70
2022/09/28 03:01:23;;;;;;;29.38;17.00;;;;;;;5.91;100.00;99296.41;1978600;28;20037;-73
2022/09/28 03:02:33;;;;;;;26.73;15.70;;;;;;;5.90;100.00;99297.34;1978491;28;20083;-70
2022/09/28 03:03:54;;;;;;;24.77;15.90;;;;;;;5.91;100.00;99299.00;1978662;28;20045;-69
2022/09/28 03:05:24;;;;;;;26.33;16.00;;;;;;;5.88;100.00;99300.00;1978450;28;20420;-71
2022/09/28 03:06:52;;;;;;;24.38;14.18;;;;;;;5.87;100.00;99295.72;1978551;28;20417;-71
2022/09/28 03:08:10;;;;;;;24.98;15.18;;;;;;;5.87;100.00;99295.72;1978653;28;20017;-72
2022/09/28 03:09:24;;;;;;;26.67;15.35;;;;;;;5.90;100.00;99299.91;1978481;28;20123;-71
2022/09/28 03:10:37;;;;;;;28.00;15.38;;;;;;;5.88;100.00;99301.72;1977782;28;20100;-72
2022/09/28 03:11:44;;;;;;;27.35;15.15;;;;;;;5.87;100.00;99300.91;1978149;28;20119;-70
2022/09/28 03:12:47;;;;;;;22.48;13.95;;;;;;;5.85;100.00;99302.72;1978464;28;20512;-71
2022/09/28 03:13:45;;;;;;;26.92;15.52;;;;;;;5.84;100.00;99301.03;1978608;28;20040;-70
2022/09/28 03:14:42;;;;;;;27.95;15.38;;;;;;;5.85;100.00;99302.72;1975330;28;20059;-71
2022/09/28 03:15:40;;;;;;;25.45;15.02;;;;;;;5.89;100.00;99303.44;1977959;28;20052;-69
2022/09/28 03:16:43;;;;;;;26.75;15.75;;;;;;;5.87;100.00;99295.72;1978334;28;20037;-69
2022/09/28 03:17:40;;;;;;;28.25;15.32;;;;;;;5.87;100.00;99295.72;1978470;28;20026;-70
2022/09/28 03:18:38;;;;;;;25.70;15.60;;;;;;;5.90;100.00;99294.75;1978343;28;20111;-71
2022/09/28 03:19:36;;;;;;;24.42;14.68;;;;;;;5.93;100.00;99299.78;1978436;28;20026;-69
2022/09/28 03:20:34;;;;;;;28.02;15.02;;;;;;;5.96;100.00;99297.03;1978393;28;20044;-70
2022/09/28 03:21:31;;;;;;;20.92;14.52;;;;;;;5.93;100.00;99300.59;1978491;28;20493;-70
2022/09/28 03:22:28;;;;;;;24.67;15.57;;;;;;;5.95;100.00;99300.53;1978615;28;20113;-71
2022/09/28 03:23:26;;;;;;;23.98;15.05;;;;;;;5.98;100.00;99296.94;1978433;28;20248;-71
2022/09/28 03:24:23;;;;;;;23.45;15.18;;;;;;;5.99;100.00;99299.47;1978381;28;20022;-69
2022/09/28 03:25:21;;;;;;;24.45;14.82;;;;;;;5.98;100.00;99294.34;1978399;28;20074;-71
2022/09/28 03:26:18;;;;;;;24.75;14.70;;;;;;;5.98;100.00;99302.97;1978455;28;20036;-70
2022/09/28 03:27:16;;;;;;;25.38;14.75;;;;;;;5.99;100.00;99298.66;1978339;28;20056;-70
2022/09/28 03:28:13;;;;;;;29.45;14.40;;;;;;;6.00;100.00;99295.13;1978486;28;20082;-69
2022/09/28 03:29:10;;;;;;;23.10;13.27;;;;;;;6.01;100.00;99296.81;1978256;28;20032;-70
2022/09/28 03:30:10;;;;;;;22.60;13.55;;;;;;;6.00;100.00;99295.13;1978341;28;20039;-69
2022/09/28 03:31:08;;;;;;;22.63;13.43;;;;;;;6.02;100.00;99293.31;1978287;28;20044;-74
2022/09/28 03:32:05;;;;;;;21.48;13.15;;;;;;;6.01;100.00;99296.81;1978425;28;20100;-71
2022/09/28 03:33:03;;;;;;;23.48;13.98;;;;;;;6.01;100.00;99294.22;1978261;28;20112;-69
2022/09/28 03:34:00;;;;;;;19.45;12.32;;;;;;;6.03;100.00;99289.81;1978378;28;20025;-70
2022/09/28 03:34:58;;;;;;;19.38;12.73;;;;;;;5.99;100.00;99293.47;1978317;28;20385;-72
2022/09/28 03:35:55;;;;;;;20.83;12.70;;;;;;;6.04;100.00;99294.09;1978269;28;20028;-69
2022/09/28 03:36:52;;;;;;;22.10;12.50;;;;;;;6.03;100.00;99290.66;1978143;28;20084;-70
2022/09/28 03:37:56;;;;;;;22.38;12.90;;;;;;;6.05;100.00;99288.00;1978267;28;20032;-69
2022/09/28 03:38:55;;;;;;;21.52;12.73;;;;;;;6.03;100.00;99289.81;1977277;28;20500;-70
2022/09/28 03:39:52;;;;;;;19.02;12.35;;;;;;;6.03;100.00;99289.81;1978213;28;20017;-71
2022/09/28 03:40:58;;;;;;;19.02;11.80;;;;;;;6.03;100.00;99287.22;1978326;28;20036;-70
2022/09/28 03:41:59;;;;;;;22.25;12.35;;;;;;;6.06;100.00;99289.72;1978229;28;20029;-70
2022/09/28 03:42:56;;;;;;;;;;;;;;;6.02;100.00;99299.31;1978846;28;20187;-71
2022/09/28 03:43:53;;;;;;;17.98;10.52;;;;;;;6.03;100.00;99289.81;1977168;28;19944;-71
2022/09/28 03:44:51;;;;;;;19.85;11.40;;;;;;;6.07;100.00;99293.13;1977349;28;20029;-71
2022/09/28 03:45:53;;;;;;;22.75;11.55;;;;;;;6.03;100.00;99300.19;1978172;28;20036;-70
2022/09/28 03:46:51;;;;;;;21.45;11.73;;;;;;;6.07;100.00;99290.53;1977586;28;20074;-72
2022/09/28 03:47:48;;;;;;;16.98;12.13;;;;;;;6.02;100.00;99298.50;1977644;28;20025;-70
2022/09/28 03:48:46;;;;;;;19.90;11.68;;;;;;;6.02;100.00;99299.31;1978242;28;20017;-70
2022/09/28 03:49:44;;;;;;;20.92;11.80;;;;;;;6.07;100.00;99295.72;1978448;28;20060;-70
2022/09/28 03:50:42;;;;;;;17.92;11.15;;;;;;;6.06;100.00;99294.88;1978176;28;20029;-71
2022/09/28 03:51:39;;;;;;;19.10;11.55;;;;;;;6.09;100.00;99294.72;1978382;28;20502;-70
2022/09/28 03:52:36;;;;;;;20.90;11.30;;;;;;;6.07;100.00;99291.38;1978204;28;20035;-71
2022/09/28 03:53:35;;;;;;;19.30;11.27;;;;;;;6.06;100.00;99300.06;1978149;28;20087;-71
2022/09/28 03:54:33;;;;;;;16.60;10.32;;;;;;;6.06;100.00;99297.47;1978113;28;20439;-69
2022/09/28 03:55:30;;;;;;;13.93;10.57;;;;;;;6.03;100.00;99300.19;1978252;28;20086;-70
2022/09/28 03:56:27;;;;;;;17.65;10.85;;;;;;;6.03;100.00;99306.22;1978167;28;20029;-70
2022/09/28 03:57:25;;;;;;;20.58;10.73;;;;;;;5.99;100.00;99303.81;1977945;28;20044;-71
2022/09/28 03:58:22;;;;;;;17.27;10.13;;;;;;;6.02;100.00;99304.50;1978148;28;20049;-68
2022/09/28 03:59:20;;;;;;;18.33;10.45;;;;;;;6.01;100.00;99296.81;1978232;28;20506;-70
2022/09/28 04:00:18;;;;;;;16.88;10.25;;;;;;;6.03;100.00;99302.75;1978142;28;20514;-70
2022/09/28 04:01:16;;;;;;;17.92;10.35;;;;;;;6.03;100.00;99303.63;1978168;28;20108;-72
2022/09/28 04:02:13;;;;;;;19.27;10.25;;;;;;;5.98;100.00;99307.31;1977606;28;20043;-72
2022/09/28 04:03:10;;;;;;;15.13;10.27;;;;;;;5.99;100.00;99296.06;1977514;28;20025;-71
2022/09/28 04:04:12;;;;;;;15.80;10.13;;;;;;;5.98;100.00;99296.94;1977988;28;20036;-71
2022/09/28 04:05:10;;;;;;;20.25;10.38;;;;;;;5.99;100.00;99301.25;1977998;28;20485;-70
2022/09/28 04:06:07;;;;;;;15.88;9.55;;;;;;;6.00;100.00;99300.31;1977419;28;20037;-70
2022/09/28 04:07:05;;;;;;;15.00;8.55;;;;;;;5.96;100.00;99309.16;1977531;28;20040;-71
2022/09/28 04:08:02;;;;;;;16.20;9.80;;;;;;;5.97;100.00;99310.81;1978201;28;20079;-67
2022/09/28 04:09:00;;;;;;;15.13;9.20;;;;;;;6.00;100.00;99300.31;1978055;28;20119;-69
2022/09/28 04:09:57;;;;;;;15.85;9.32;;;;;;;6.00;100.00;99300.31;1978094;28;20045;-70
2022/09/28 04:11:00;;;;;;;13.27;9.23;;;;;;;6.02;100.00;99299.31;1977384;28;20058;-70
2022/09/28 04:11:57;;;;;;;16.27;9.27;;;;;;;6.03;100.00;99302.75;1969666;28;20029;-69
2022/09/28 04:12:58;;;;;;;15.27;9.18;;;;;;;6.03;100.00;99305.34;1977276;28;20025;-69
2022/09/28 04:13:55;;;;;;;14.50;9.13;;;;;;;6.02;100.00;99304.50;1976722;28;20064;-70
2022/09/28 04:14:53;;;;;;;12.68;8.68;;;;;;;5.99;100.00;99298.66;1976619;28;20028;-70
2022/09/28 04:15:58;;;;;;;15.48;8.82;;;;;;;6.01;100.00;99302.84;1977469;28;20054;-72
2022/09/28 04:16:56;;;;;;;16.58;8.52;;;;;;;6.01;100.00;99300.25;1977917;28;20021;-69
2022/09/28 04:17:53;;;;;;;14.82;8.75;;;;;;;6.04;100.00;99301.88;1978080;28;20027;-70
2022/09/28 04:18:50;;;;;;;15.25;8.52;;;;;;;6.04;100.00;99302.72;1978022;28;20028;-69
2022/09/28 04:19:48;;;;;;;13.38;8.60;;;;;;;6.02;100.00;99301.09;1977929;28;20026;-72
2022/09/28 04:20:46;;;;;;;12.23;8.10;;;;;;;6.04;100.00;99307.06;1978076;28;20021;-69
2022/09/28 04:21:44;;;;;;;12.70;8.10;;;;;;;6.05;100.00;99306.13;1977977;28;20029;-71
2022/09/28 04:22:41;;;;;;;11.77;7.25;;;;;;;6.04;100.00;99301.88;1978081;28;20512;-72
2022/09/28 04:23:40;;;;;;;10.60;7.57;;;;;;;6.05;100.00;99308.72;1977974;28;20029;-70
2022/09/28 04:24:37;;;;;;;12.30;7.18;;;;;;;6.12;100.00;99306.69;1978037;28;20384;-71
2022/09/28 04:25:35;;;;;;;10.70;6.45;;;;;;;6.06;100.00;99302.66;1977939;28;20163;-71
2022/09/28 04:26:32;;;;;;;10.23;6.22;;;;;;;6.12;100.00;99302.34;1977401;28;20123;-69
2022/09/28 04:30:04;;;;;;;8.30;5.78;;;;;;;6.15;100.00;99304.78;1977950;28;20045;-70
2022/09/28 04:31:01;;;;;;;6.75;5.35;;;;;;;6.16;100.00;99300.47;1977961;28;20025;-68
2022/09/28 04:32:00;;;;;;;8.88;6.18;;;;;;;6.14;100.00;99307.44;1977887;28;20079;-69
2022/09/28 04:32:57;;;;;;;8.23;5.30;;;;;;;6.12;100.00;99299.75;1978031;28;20526;-69
2022/09/28 04:33:56;;;;;;;9.02;5.50;;;;;;;6.11;100.00;99298.06;1977855;28;20030;-70
2022/09/28 04:34:54;;;;;;;8.25;5.78;;;;;;;6.17;100.00;99295.16;1977844;28;20025;-70
2022/09/28 04:35:52;;;;;;;8.30;6.13;;;;;;;6.13;100.00;99298.81;1977820;28;20062;-70
2022/09/28 04:36:50;;;;;;;9.10;5.78;;;;;;;6.13;100.00;99298.00;1977727;28;20088;-70
2022/09/28 04:37:47;;;;;;;10.95;5.90;;;;;;;6.15;100.00;99298.75;1977244;28;20029;-69
2022/09/28 04:38:44;;;;;;;14.13;6.10;;;;;;;6.16;100.00;99293.50;1977329;28;20052;-69
2022/09/28 04:39:42;;;;;;;8.15;5.68;;;;;;;6.16;100.00;99298.69;1977862;28;20143;-69
2022/09/28 04:40:39;;;;;;;13.05;5.70;;;;;;;6.13;100.00;99295.41;1977824;28;20079;-69
2022/09/28 04:41:37;;;;;;;9.82;5.15;;;;;;;6.11;100.00;99298.06;1977225;28;20493;-70
2022/09/28 04:42:35;;;;;;;11.40;5.32;;;;;;;6.13;100.00;99295.41;1969382;28;20037;-71
2022/09/28 04:43:33;;;;;;;9.10;5.55;;;;;;;6.13;100.00;99298.00;1976620;28;20025;-70
2022/09/28 04:44:30;;;;;;;10.77;5.82;;;;;;;6.12;100.00;99298.94;1975404;28;20378;-68
2022/09/28 04:45:28;;;;;;;9.73;5.50;;;;;;;6.10;100.00;99299.00;1978038;28;20022;-69
2022/09/28 04:46:25;;;;;;;8.63;5.65;;;;;;;6.09;100.00;99294.72;1977701;28;20079;-69
2022/09/28 04:47:24;;;;;;;8.68;5.45;;;;;;;6.06;100.00;99294.88;1978022;28;20049;-70
2022/09/28 04:48:22;;;;;;;8.55;5.18;;;;;;;6.12;100.00;99298.94;1977765;28;20137;-70
2022/09/28 04:49:19;;;;;;;8.55;5.43;;;;;;;6.09;100.00;99299.06;1977828;28;20075;-71
2022/09/28 04:50:17;;;;;;;11.48;5.38;;;;;;;6.06;100.00;99297.47;1977575;28;20106;-69
2022/09/28 04:51:14;;;;;;;9.45;5.65;;;;;;;6.04;100.00;99294.09;1977813;28;20083;-70
2022/09/28 04:52:12;;;;;;;12.73;5.82;;;;;;;6.03;100.00;99298.44;1977876;28;20036;-68
2022/09/28 04:53:09;;;;;;;8.32;6.28;;;;;;;6.03;100.00;99303.63;1977751;28;20041;-69
2022/09/28 04:54:07;;;;;;;10.63;6.13;;;;;;;6.03;100.00;99301.03;1977913;28;20083;-70
2022/09/28 04:55:05;;;;;;;11.40;5.88;;;;;;;5.99;100.00;99299.47;1977796;28;20033;-73
2022/09/28 04:56:07;;;;;;;9.10;6.10;;;;;;;5.95;100.00;99302.28;1977760;28;20033;-69